sensor_id;sensor_type;location;lat;lon;timestamp;temperature;humidity
70593;DHT22;58294;42.988;20.338;2023-07-28T00:02:04;358.60;1920.00
70593;DHT22;58294;42.988;20.338;2023-07-28T00:04:30;358.50;1920.00
70593;DHT22;58294;42.988;20.338;2023-07-28T00:06:56;358.50;1894.40
70593;DHT22;58294;42.988;20.338;2023-07-28T00:09:22;358.40;1920.00
70593;DHT22;58294;42.988;20.338;2023-07-28T00:11:49;333.70;1945.60
70593;DHT22;58294;42.988;20.338;2023-07-28T00:14:15;333.70;1971.20
70593;DHT22;58294;42.988;20.338;2023-07-28T00:16:41;333.70;1996.80
70593;DHT22;58294;42.988;20.338;2023-07-28T00:19:07;333.70;1996.80
70593;DHT22;58294;42.988;20.338;2023-07-28T00:21:33;333.70;1996.80
70593;DHT22;58294;42.988;20.338;2023-07-28T00:23:58;333.70;2022.40
70593;DHT22;58294;42.988;20.338;2023-07-28T00:26:24;333.70;2022.40
70593;DHT22;58294;42.988;20.338;2023-07-28T00:28:50;333.70;2048.00
70593;DHT22;58294;42.988;20.338;2023-07-28T00:31:16;333.70;2022.40
70593;DHT22;58294;42.988;20.338;2023-07-28T00:33:42;333.70;2022.40
70593;DHT22;58294;42.988;20.338;2023-07-28T00:36:07;358.40;1996.80
70593;DHT22;58294;42.988;20.338;2023-07-28T00:38:33;333.70;1996.80
70593;DHT22;58294;42.988;20.338;2023-07-28T00:40:59;333.70;1996.80
70593;DHT22;58294;42.988;20.338;2023-07-28T00:43:25;333.70;1996.80
70593;DHT22;58294;42.988;20.338;2023-07-28T00:45:51;333.60;1996.80
70593;DHT22;58294;42.988;20.338;2023-07-28T00:48:17;333.60;1971.20
70593;DHT22;58294;42.988;20.338;2023-07-28T00:50:47;333.50;1971.20
70593;DHT22;58294;42.988;20.338;2023-07-28T00:53:14;333.40;1996.80
70593;DHT22;58294;42.988;20.338;2023-07-28T00:55:41;333.40;1996.80
70593;DHT22;58294;42.988;20.338;2023-07-28T00:58:08;333.30;2048.00
70593;DHT22;58294;42.988;20.338;2023-07-28T01:00:34;333.30;1996.80
70593;DHT22;58294;42.988;20.338;2023-07-28T01:03:01;333.30;1996.80
70593;DHT22;58294;42.988;20.338;2023-07-28T01:05:49;333.20;1996.80
70593;DHT22;58294;42.988;20.338;2023-07-28T01:08:38;333.10;2022.40
70593;DHT22;58294;42.988;20.338;2023-07-28T01:11:07;333.10;2022.40
70593;DHT22;58294;42.988;20.338;2023-07-28T01:13:33;333.00;2022.40
70593;DHT22;58294;42.988;20.338;2023-07-28T01:15:58;333.00;2048.00
70593;DHT22;58294;42.988;20.338;2023-07-28T01:18:27;332.90;2048.00
70593;DHT22;58294;42.988;20.338;2023-07-28T01:20:56;332.90;2073.60
70593;DHT22;58294;42.988;20.338;2023-07-28T01:23:44;332.90;2048.00
70593;DHT22;58294;42.988;20.338;2023-07-28T01:26:12;332.80;2022.40
70593;DHT22;58294;42.988;20.338;2023-07-28T01:28:41;332.80;2099.20
70593;DHT22;58294;42.988;20.338;2023-07-28T01:31:09;332.80;2099.20
70593;DHT22;58294;42.988;20.338;2023-07-28T01:33:35;332.80;2099.20
70593;DHT22;58294;42.988;20.338;2023-07-28T01:36:01;332.80;2124.80
70593;DHT22;58294;42.988;20.338;2023-07-28T01:38:28;332.80;2124.80
70593;DHT22;58294;42.988;20.338;2023-07-28T01:40:54;332.80;2150.40
70593;DHT22;58294;42.988;20.338;2023-07-28T01:43:20;332.80;2150.40
70593;DHT22;58294;42.988;20.338;2023-07-28T01:45:45;332.90;2176.00
70593;DHT22;58294;42.988;20.338;2023-07-28T01:48:11;332.90;2176.00
70593;DHT22;58294;42.988;20.338;2023-07-28T01:50:37;332.90;2176.00
70593;DHT22;58294;42.988;20.338;2023-07-28T01:53:06;332.90;2124.80
70593;DHT22;58294;42.988;20.338;2023-07-28T01:55:32;332.90;2099.20
70593;DHT22;58294;42.988;20.338;2023-07-28T01:58:00;332.90;2099.20
70593;DHT22;58294;42.988;20.338;2023-07-28T02:00:26;332.80;2073.60
70593;DHT22;58294;42.988;20.338;2023-07-28T02:02:52;332.80;2073.60
70593;DHT22;58294;42.988;20.338;2023-07-28T02:05:18;308.10;2048.00
70593;DHT22;58294;42.988;20.338;2023-07-28T02:07:45;308.00;2022.40
70593;DHT22;58294;42.988;20.338;2023-07-28T02:10:11;308.00;2022.40
70593;DHT22;58294;42.988;20.338;2023-07-28T02:15:04;307.80;1996.80
70593;DHT22;58294;42.988;20.338;2023-07-28T02:17:30;307.80;2022.40
70593;DHT22;58294;42.988;20.338;2023-07-28T02:19:56;307.70;2022.40
70593;DHT22;58294;42.988;20.338;2023-07-28T02:22:22;307.60;2048.00
70593;DHT22;58294;42.988;20.338;2023-07-28T02:24:48;307.70;2073.60
70593;DHT22;58294;42.988;20.338;2023-07-28T02:27:13;307.60;2073.60
70593;DHT22;58294;42.988;20.338;2023-07-28T02:29:39;307.50;2073.60
70593;DHT22;58294;42.988;20.338;2023-07-28T02:32:05;307.50;2073.60
70593;DHT22;58294;42.988;20.338;2023-07-28T02:34:31;307.50;2073.60
70593;DHT22;58294;42.988;20.338;2023-07-28T02:36:57;307.40;2099.20
70593;DHT22;58294;42.988;20.338;2023-07-28T02:39:23;307.40;2124.80
70593;DHT22;58294;42.988;20.338;2023-07-28T02:41:50;307.40;2124.80
70593;DHT22;58294;42.988;20.338;2023-07-28T02:44:16;307.30;2124.80
70593;DHT22;58294;42.988;20.338;2023-07-28T02:46:41;307.30;2150.40
70593;DHT22;58294;42.988;20.338;2023-07-28T02:49:07;307.30;2124.80
70593;DHT22;58294;42.988;20.338;2023-07-28T02:51:33;307.20;2150.40
70593;DHT22;58294;42.988;20.338;2023-07-28T02:54:00;307.20;2176.00
70593;DHT22;58294;42.988;20.338;2023-07-28T02:56:26;307.20;2150.40
70593;DHT22;58294;42.988;20.338;2023-07-28T02:58:52;307.20;2150.40
70593;DHT22;58294;42.988;20.338;2023-07-28T03:01:17;282.50;2150.40
70593;DHT22;58294;42.988;20.338;2023-07-28T03:03:44;282.50;2150.40
70593;DHT22;58294;42.988;20.338;2023-07-28T03:06:11;282.50;2176.00
70593;DHT22;58294;42.988;20.338;2023-07-28T03:08:37;282.50;2150.40
70593;DHT22;58294;42.988;20.338;2023-07-28T03:11:02;282.50;2150.40
70593;DHT22;58294;42.988;20.338;2023-07-28T03:13:28;282.50;2150.40
70593;DHT22;58294;42.988;20.338;2023-07-28T03:15:54;282.40;2150.40
70593;DHT22;58294;42.988;20.338;2023-07-28T03:18:20;282.30;2150.40
70593;DHT22;58294;42.988;20.338;2023-07-28T03:20:46;282.30;2176.00
70593;DHT22;58294;42.988;20.338;2023-07-28T03:23:12;282.30;2227.20
70593;DHT22;58294;42.988;20.338;2023-07-28T03:25:38;282.30;2201.60
70593;DHT22;58294;42.988;20.338;2023-07-28T03:28:04;282.30;2252.80
70593;DHT22;58294;42.988;20.338;2023-07-28T03:30:30;282.30;2252.80
70593;DHT22;58294;42.988;20.338;2023-07-28T03:32:56;282.30;2252.80
70593;DHT22;58294;42.988;20.338;2023-07-28T03:35:22;282.30;2201.60
70593;DHT22;58294;42.988;20.338;2023-07-28T03:37:48;282.30;2252.80
70593;DHT22;58294;42.988;20.338;2023-07-28T03:40:14;282.30;2252.80
70593;DHT22;58294;42.988;20.338;2023-07-28T03:42:40;282.30;2252.80
70593;DHT22;58294;42.988;20.338;2023-07-28T03:45:06;282.30;2252.80
70593;DHT22;58294;42.988;20.338;2023-07-28T03:47:32;282.30;2227.20
70593;DHT22;58294;42.988;20.338;2023-07-28T03:49:58;282.30;2227.20
70593;DHT22;58294;42.988;20.338;2023-07-28T03:52:23;282.30;2227.20
70593;DHT22;58294;42.988;20.338;2023-07-28T03:54:49;282.30;2252.80
70593;DHT22;58294;42.988;20.338;2023-07-28T03:57:15;282.30;2252.80
70593;DHT22;58294;42.988;20.338;2023-07-28T03:59:41;282.20;2252.80
70593;DHT22;58294;42.988;20.338;2023-07-28T04:02:06;282.20;2278.40
70593;DHT22;58294;42.988;20.338;2023-07-28T04:04:32;282.20;2278.40
70593;DHT22;58294;42.988;20.338;2023-07-28T04:06:58;282.20;2278.40
70593;DHT22;58294;42.988;20.338;2023-07-28T04:09:24;282.30;2278.40
70593;DHT22;58294;42.988;20.338;2023-07-28T04:11:50;282.30;2278.40
70593;DHT22;58294;42.988;20.338;2023-07-28T04:14:15;282.30;2278.40
70593;DHT22;58294;42.988;20.338;2023-07-28T04:16:41;282.30;2278.40
70593;DHT22;58294;42.988;20.338;2023-07-28T04:19:07;282.30;2278.40
70593;DHT22;58294;42.988;20.338;2023-07-28T04:21:33;282.30;2278.40
70593;DHT22;58294;42.988;20.338;2023-07-28T04:23:58;282.30;2278.40
70593;DHT22;58294;42.988;20.338;2023-07-28T04:26:25;282.40;2278.40
70593;DHT22;58294;42.988;20.338;2023-07-28T04:28:50;282.40;2278.40
70593;DHT22;58294;42.988;20.338;2023-07-28T04:31:16;282.50;2278.40
70593;DHT22;58294;42.988;20.338;2023-07-28T04:33:42;282.50;2278.40
70593;DHT22;58294;42.988;20.338;2023-07-28T04:36:09;307.20;2304.00
70593;DHT22;58294;42.988;20.338;2023-07-28T04:38:35;307.30;2304.00
70593;DHT22;58294;42.988;20.338;2023-07-28T04:41:01;307.40;2304.00
70593;DHT22;58294;42.988;20.338;2023-07-28T04:43:26;307.40;2304.00
70593;DHT22;58294;42.988;20.338;2023-07-28T04:45:52;307.40;2304.00
70593;DHT22;58294;42.988;20.338;2023-07-28T04:48:18;307.40;2304.00
70593;DHT22;58294;42.988;20.338;2023-07-28T04:50:44;307.50;2304.00
70593;DHT22;58294;42.988;20.338;2023-07-28T04:53:11;307.60;2304.00
70593;DHT22;58294;42.988;20.338;2023-07-28T04:55:36;307.70;2304.00
70593;DHT22;58294;42.988;20.338;2023-07-28T04:58:02;307.70;2304.00
70593;DHT22;58294;42.988;20.338;2023-07-28T05:00:28;307.70;2304.00
70593;DHT22;58294;42.988;20.338;2023-07-28T05:02:54;307.80;2304.00
70593;DHT22;58294;42.988;20.338;2023-07-28T05:05:20;307.90;2304.00
70593;DHT22;58294;42.988;20.338;2023-07-28T05:07:46;307.90;2304.00
70593;DHT22;58294;42.988;20.338;2023-07-28T05:10:13;308.00;2304.00
70593;DHT22;58294;42.988;20.338;2023-07-28T05:12:38;308.00;2304.00
70593;DHT22;58294;42.988;20.338;2023-07-28T05:15:05;308.00;2304.00
70593;DHT22;58294;42.988;20.338;2023-07-28T05:17:36;308.10;2304.00
70593;DHT22;58294;42.988;20.338;2023-07-28T05:32:13;333.10;2278.40
70593;DHT22;58294;42.988;20.338;2023-07-28T05:34:42;333.00;2329.60
70593;DHT22;58294;42.988;20.338;2023-07-28T05:37:08;333.10;2329.60
70593;DHT22;58294;42.988;20.338;2023-07-28T05:39:34;333.20;2329.60
70593;DHT22;58294;42.988;20.338;2023-07-28T05:42:00;333.20;2329.60
70593;DHT22;58294;42.988;20.338;2023-07-28T05:44:25;333.30;2329.60
70593;DHT22;58294;42.988;20.338;2023-07-28T05:46:51;333.30;2329.60
70593;DHT22;58294;42.988;20.338;2023-07-28T05:49:17;333.40;2329.60
70593;DHT22;58294;42.988;20.338;2023-07-28T05:51:43;333.50;2329.60
70593;DHT22;58294;42.988;20.338;2023-07-28T05:54:08;333.50;2329.60
70593;DHT22;58294;42.988;20.338;2023-07-28T05:56:34;333.60;2329.60
70593;DHT22;58294;42.988;20.338;2023-07-28T05:59:00;333.70;2329.60
70593;DHT22;58294;42.988;20.338;2023-07-28T06:01:26;358.40;2329.60
70593;DHT22;58294;42.988;20.338;2023-07-28T06:03:52;358.40;2329.60
70593;DHT22;58294;42.988;20.338;2023-07-28T06:06:21;358.60;2329.60
70593;DHT22;58294;42.988;20.338;2023-07-28T06:08:47;358.60;2329.60
70593;DHT22;58294;42.988;20.338;2023-07-28T06:11:13;358.80;2329.60
70593;DHT22;58294;42.988;20.338;2023-07-28T06:13:39;358.90;2329.60
70593;DHT22;58294;42.988;20.338;2023-07-28T06:16:04;359.00;2329.60
70593;DHT22;58294;42.988;20.338;2023-07-28T06:18:30;359.10;2329.60
70593;DHT22;58294;42.988;20.338;2023-07-28T06:20:56;359.20;2329.60
70593;DHT22;58294;42.988;20.338;2023-07-28T06:23:22;359.30;2329.60
70593;DHT22;58294;42.988;20.338;2023-07-28T06:25:47;384.00;2329.60
70593;DHT22;58294;42.988;20.338;2023-07-28T06:28:13;384.10;2329.60
70593;DHT22;58294;42.988;20.338;2023-07-28T06:30:39;384.20;2329.60
70593;DHT22;58294;42.988;20.338;2023-07-28T06:33:09;384.40;2329.60
70593;DHT22;58294;42.988;20.338;2023-07-28T06:35:35;384.50;2329.60
70593;DHT22;58294;42.988;20.338;2023-07-28T06:38:01;384.60;2329.60
70593;DHT22;58294;42.988;20.338;2023-07-28T06:40:27;384.80;2329.60
70593;DHT22;58294;42.988;20.338;2023-07-28T06:42:53;409.60;2329.60
70593;DHT22;58294;42.988;20.338;2023-07-28T06:45:20;409.70;2355.20
70593;DHT22;58294;42.988;20.338;2023-07-28T06:47:46;409.90;2278.40
70593;DHT22;58294;42.988;20.338;2023-07-28T06:50:12;410.00;2304.00
70593;DHT22;58294;42.988;20.338;2023-07-28T06:52:38;410.10;2278.40
70593;DHT22;58294;42.988;20.338;2023-07-28T06:55:04;410.30;2201.60
70593;DHT22;58294;42.988;20.338;2023-07-28T06:57:30;410.40;2201.60
70593;DHT22;58294;42.988;20.338;2023-07-28T06:59:57;410.50;2176.00
70593;DHT22;58294;42.988;20.338;2023-07-28T07:02:23;435.20;2150.40
70593;DHT22;58294;42.988;20.338;2023-07-28T07:04:49;435.40;2176.00
70593;DHT22;58294;42.988;20.338;2023-07-28T07:07:15;435.60;2099.20
70593;DHT22;58294;42.988;20.338;2023-07-28T07:09:40;435.70;2099.20
70593;DHT22;58294;42.988;20.338;2023-07-28T07:12:08;435.90;2099.20
70593;DHT22;58294;42.988;20.338;2023-07-28T07:14:34;436.00;2073.60
70593;DHT22;58294;42.988;20.338;2023-07-28T07:17:00;436.10;2048.00
70593;DHT22;58294;42.988;20.338;2023-07-28T07:19:28;460.90;2048.00
70593;DHT22;58294;42.988;20.338;2023-07-28T07:21:54;461.00;2022.40
70593;DHT22;58294;42.988;20.338;2023-07-28T07:24:20;461.10;2022.40
70593;DHT22;58294;42.988;20.338;2023-07-28T07:26:46;461.20;1996.80
70593;DHT22;58294;42.988;20.338;2023-07-28T07:29:12;461.40;1971.20
70593;DHT22;58294;42.988;20.338;2023-07-28T07:31:38;461.50;1971.20
70593;DHT22;58294;42.988;20.338;2023-07-28T07:34:04;461.70;1971.20
70593;DHT22;58294;42.988;20.338;2023-07-28T07:36:30;486.40;1945.60
70593;DHT22;58294;42.988;20.338;2023-07-28T07:38:57;486.60;1945.60
70593;DHT22;58294;42.988;20.338;2023-07-28T07:41:23;486.70;1894.40
70593;DHT22;58294;42.988;20.338;2023-07-28T07:43:52;486.80;1868.80
70593;DHT22;58294;42.988;20.338;2023-07-28T07:46:18;486.90;1843.20
70593;DHT22;58294;42.988;20.338;2023-07-28T07:48:47;487.00;1843.20
70593;DHT22;58294;42.988;20.338;2023-07-28T07:51:14;487.20;1817.60
70593;DHT22;58294;42.988;20.338;2023-07-28T07:53:40;487.30;1817.60
70593;DHT22;58294;42.988;20.338;2023-07-28T07:56:06;512.10;1792.00
70593;DHT22;58294;42.988;20.338;2023-07-28T07:58:35;512.30;1792.00
70593;DHT22;58294;42.988;20.338;2023-07-28T08:01:02;512.50;1792.00
70593;DHT22;58294;42.988;20.338;2023-07-28T08:03:28;512.70;1817.60
70593;DHT22;58294;42.988;20.338;2023-07-28T08:05:54;512.90;1766.40
70593;DHT22;58294;42.988;20.338;2023-07-28T08:10:47;538.00;1817.60
70593;DHT22;58294;42.988;20.338;2023-07-28T08:13:13;538.10;1715.20
70593;DHT22;58294;42.988;20.338;2023-07-28T08:18:06;563.20;1766.40
70593;DHT22;58294;42.988;20.338;2023-07-28T08:20:31;563.20;1715.20
70593;DHT22;58294;42.988;20.338;2023-07-28T08:22:57;563.30;1689.60
70593;DHT22;58294;42.988;20.338;2023-07-28T08:25:23;563.40;1638.40
70593;DHT22;58294;42.988;20.338;2023-07-28T08:27:49;563.60;1715.20
70593;DHT22;58294;42.988;20.338;2023-07-28T08:30:15;563.70;1612.80
70593;DHT22;58294;42.988;20.338;2023-07-28T08:32:42;563.90;1638.40
70593;DHT22;58294;42.988;20.338;2023-07-28T08:35:09;564.10;1612.80
70593;DHT22;58294;42.988;20.338;2023-07-28T08:37:34;588.80;1561.60
70593;DHT22;58294;42.988;20.338;2023-07-28T08:40:00;588.80;1561.60
70593;DHT22;58294;42.988;20.338;2023-07-28T08:42:29;589.00;1561.60
70593;DHT22;58294;42.988;20.338;2023-07-28T08:44:55;589.10;1510.40
70593;DHT22;58294;42.988;20.338;2023-07-28T08:47:21;589.30;1510.40
70593;DHT22;58294;42.988;20.338;2023-07-28T08:49:48;589.50;1510.40
70593;DHT22;58294;42.988;20.338;2023-07-28T08:52:17;589.60;1510.40
70593;DHT22;58294;42.988;20.338;2023-07-28T08:54:43;589.70;1408.00
70593;DHT22;58294;42.988;20.338;2023-07-28T08:57:10;614.40;1433.60
70593;DHT22;58294;42.988;20.338;2023-07-28T08:59:36;614.50;1408.00
70593;DHT22;58294;42.988;20.338;2023-07-28T09:02:09;614.80;1433.60
70593;DHT22;58294;42.988;20.338;2023-07-28T09:04:35;614.90;1433.60
70593;DHT22;58294;42.988;20.338;2023-07-28T09:07:04;615.10;1484.80
70593;DHT22;58294;42.988;20.338;2023-07-28T09:09:32;615.00;1408.00
70593;DHT22;58294;42.988;20.338;2023-07-28T09:11:59;615.10;1305.60
70593;DHT22;58294;42.988;20.338;2023-07-28T09:14:26;615.30;1305.60
70593;DHT22;58294;42.988;20.338;2023-07-28T09:16:53;640.00;1356.80
70593;DHT22;58294;42.988;20.338;2023-07-28T09:19:20;640.00;1280.00
70593;DHT22;58294;42.988;20.338;2023-07-28T09:22:00;640.00;1280.00
70593;DHT22;58294;42.988;20.338;2023-07-28T09:24:35;640.20;1126.40
70593;DHT22;58294;42.988;20.338;2023-07-28T09:27:02;640.30;1100.80
70593;DHT22;58294;42.988;20.338;2023-07-28T09:29:29;640.30;1075.20
70593;DHT22;58294;42.988;20.338;2023-07-28T09:32:04;640.40;1152.00
70593;DHT22;58294;42.988;20.338;2023-07-28T09:34:30;640.60;1177.60
70593;DHT22;58294;42.988;20.338;2023-07-28T09:37:00;640.60;1126.40
70593;DHT22;58294;42.988;20.338;2023-07-28T09:39:27;640.60;1152.00
70593;DHT22;58294;42.988;20.338;2023-07-28T09:41:53;640.90;1228.80
70593;DHT22;58294;42.988;20.338;2023-07-28T09:44:23;640.80;1126.40
70593;DHT22;58294;42.988;20.338;2023-07-28T09:46:54;640.90;1100.80
70593;DHT22;58294;42.988;20.338;2023-07-28T09:49:28;665.60;1049.60
70593;DHT22;58294;42.988;20.338;2023-07-28T09:51:59;665.70;1049.60
70593;DHT22;58294;42.988;20.338;2023-07-28T09:54:28;665.70;1075.20
70593;DHT22;58294;42.988;20.338;2023-07-28T09:56:58;665.80;1024.00
70593;DHT22;58294;42.988;20.338;2023-07-28T09:59:38;665.90;1075.20
70593;DHT22;58294;42.988;20.338;2023-07-28T10:02:05;665.90;1100.80
70593;DHT22;58294;42.988;20.338;2023-07-28T10:04:32;666.00;1024.00
70593;DHT22;58294;42.988;20.338;2023-07-28T10:06:58;666.00;1049.60
70593;DHT22;58294;42.988;20.338;2023-07-28T10:09:29;666.20;1100.80
70593;DHT22;58294;42.988;20.338;2023-07-28T10:12:00;666.20;1075.20
70593;DHT22;58294;42.988;20.338;2023-07-28T10:14:27;666.30;1126.40
70593;DHT22;58294;42.988;20.338;2023-07-28T10:16:54;666.30;1049.60
70593;DHT22;58294;42.988;20.338;2023-07-28T10:19:20;666.40;947.20
70593;DHT22;58294;42.988;20.338;2023-07-28T10:21:46;666.50;921.60
70593;DHT22;58294;42.988;20.338;2023-07-28T10:24:12;691.20;896.00
70593;DHT22;58294;42.988;20.338;2023-07-28T10:26:41;691.30;1024.00
70593;DHT22;58294;42.988;20.338;2023-07-28T10:29:15;691.40;972.80
70593;DHT22;58294;42.988;20.338;2023-07-28T10:31:53;691.40;844.80
70593;DHT22;58294;42.988;20.338;2023-07-28T10:34:21;691.50;793.60
70593;DHT22;58294;42.988;20.338;2023-07-28T10:36:55;691.50;921.60
70593;DHT22;58294;42.988;20.338;2023-07-28T10:42:08;768.30;1075.20
70593;DHT22;58294;42.988;20.338;2023-07-28T10:44:35;794.00;819.20
70593;DHT22;58294;42.988;20.338;2023-07-28T10:47:01;819.40;640.00
70593;DHT22;58294;42.988;20.338;2023-07-28T10:54:20;921.60;640.00
70593;DHT22;58294;42.988;20.338;2023-07-28T10:56:47;947.30;768.00
70593;DHT22;58294;42.988;20.338;2023-07-28T11:21:28;1024.00;640.00
70593;DHT22;58294;42.988;20.338;2023-07-28T11:23:54;999.10;460.80
70593;DHT22;58294;42.988;20.338;2023-07-28T11:26:21;998.90;537.60
70593;DHT22;58294;42.988;20.338;2023-07-28T11:28:48;998.70;512.00
70593;DHT22;58294;42.988;20.338;2023-07-28T11:31:14;998.70;563.20
70593;DHT22;58294;42.988;20.338;2023-07-28T11:33:41;999.10;537.60
70593;DHT22;58294;42.988;20.338;2023-07-28T11:36:07;1024.10;486.40
70593;DHT22;58294;42.988;20.338;2023-07-28T11:38:34;1024.50;563.20
70593;DHT22;58294;42.988;20.338;2023-07-28T11:41:02;1024.70;460.80
70593;DHT22;58294;42.988;20.338;2023-07-28T11:43:28;1049.80;460.80
70593;DHT22;58294;42.988;20.338;2023-07-28T11:48:20;1050.30;486.40
70593;DHT22;58294;42.988;20.338;2023-07-28T11:53:12;1075.90;435.20
70593;DHT22;58294;42.988;20.338;2023-07-28T11:55:39;1075.80;409.60
70593;DHT22;58294;42.988;20.338;2023-07-28T11:58:06;1075.50;435.20
70593;DHT22;58294;42.988;20.338;2023-07-28T12:00:35;1075.40;460.80
70593;DHT22;58294;42.988;20.338;2023-07-28T12:05:29;1075.90;435.20
70593;DHT22;58294;42.988;20.338;2023-07-28T12:08:00;1075.80;409.60
70593;DHT22;58294;42.988;20.338;2023-07-28T12:10:26;1075.50;409.60
70593;DHT22;58294;42.988;20.338;2023-07-28T12:15:29;1050.10;435.20
70593;DHT22;58294;42.988;20.338;2023-07-28T12:18:15;1050.20;486.40
70593;DHT22;58294;42.988;20.338;2023-07-28T12:20:49;1050.10;435.20
70593;DHT22;58294;42.988;20.338;2023-07-28T12:23:20;1049.90;460.80
70593;DHT22;58294;42.988;20.338;2023-07-28T12:25:47;1050.00;486.40
70593;DHT22;58294;42.988;20.338;2023-07-28T12:30:40;1075.40;486.40
70593;DHT22;58294;42.988;20.338;2023-07-28T12:38:02;1101.40;486.40
70593;DHT22;58294;42.988;20.338;2023-07-28T12:43:00;1101.60;384.00
70593;DHT22;58294;42.988;20.338;2023-07-28T12:45:26;1101.30;460.80
70593;DHT22;58294;42.988;20.338;2023-07-28T12:47:53;1101.50;409.60
70593;DHT22;58294;42.988;20.338;2023-07-28T12:52:48;1126.90;486.40
70593;DHT22;58294;42.988;20.338;2023-07-28T12:57:41;1127.10;409.60
70593;DHT22;58294;42.988;20.338;2023-07-28T13:00:08;1127.20;409.60
70593;DHT22;58294;42.988;20.338;2023-07-28T13:02:44;1152.20;435.20
70593;DHT22;58294;42.988;20.338;2023-07-28T13:05:12;1152.30;435.20
70593;DHT22;58294;42.988;20.338;2023-07-28T13:07:38;1152.10;409.60
70593;DHT22;58294;42.988;20.338;2023-07-28T13:10:07;1127.00;409.60
70593;DHT22;58294;42.988;20.338;2023-07-28T13:12:37;1126.60;409.60
70593;DHT22;58294;42.988;20.338;2023-07-28T13:19:56;1101.20;384.00
70593;DHT22;58294;42.988;20.338;2023-07-28T13:22:23;1075.70;384.00
70593;DHT22;58294;42.988;20.338;2023-07-28T13:42:02;921.90;512.00
70593;DHT22;58294;42.988;20.338;2023-07-28T13:46:54;896.50;537.60
70593;DHT22;58294;42.988;20.338;2023-07-28T13:49:21;896.10;563.20
70593;DHT22;58294;42.988;20.338;2023-07-28T13:51:47;871.30;563.20
70593;DHT22;58294;42.988;20.338;2023-07-28T13:54:13;871.00;588.80
70593;DHT22;58294;42.988;20.338;2023-07-28T13:56:39;870.60;588.80
70593;DHT22;58294;42.988;20.338;2023-07-28T13:59:05;870.40;640.00
70593;DHT22;58294;42.988;20.338;2023-07-28T14:01:35;845.60;640.00
70593;DHT22;58294;42.988;20.338;2023-07-28T14:04:02;845.30;640.00
70593;DHT22;58294;42.988;20.338;2023-07-28T14:06:27;845.20;614.40
70593;DHT22;58294;42.988;20.338;2023-07-28T14:08:53;844.90;640.00
70593;DHT22;58294;42.988;20.338;2023-07-28T14:11:19;820.10;614.40
70593;DHT22;58294;42.988;20.338;2023-07-28T14:13:45;819.90;640.00
70593;DHT22;58294;42.988;20.338;2023-07-28T14:16:11;819.90;640.00
70593;DHT22;58294;42.988;20.338;2023-07-28T14:18:38;819.70;665.60
70593;DHT22;58294;42.988;20.338;2023-07-28T14:21:04;819.60;691.20
70593;DHT22;58294;42.988;20.338;2023-07-28T14:23:29;819.40;665.60
70593;DHT22;58294;42.988;20.338;2023-07-28T14:25:55;819.30;691.20
70593;DHT22;58294;42.988;20.338;2023-07-28T14:30:57;794.50;691.20
70593;DHT22;58294;42.988;20.338;2023-07-28T14:33:22;794.50;691.20
70593;DHT22;58294;42.988;20.338;2023-07-28T14:35:49;794.40;716.80
70593;DHT22;58294;42.988;20.338;2023-07-28T14:38:15;794.30;716.80
70593;DHT22;58294;42.988;20.338;2023-07-28T14:40:43;794.30;716.80
70593;DHT22;58294;42.988;20.338;2023-07-28T14:43:12;794.30;716.80
70593;DHT22;58294;42.988;20.338;2023-07-28T14:45:38;794.10;716.80
70593;DHT22;58294;42.988;20.338;2023-07-28T14:48:03;794.10;742.40
70593;DHT22;58294;42.988;20.338;2023-07-28T14:50:29;794.00;742.40
70593;DHT22;58294;42.988;20.338;2023-07-28T14:52:58;793.90;742.40
70593;DHT22;58294;42.988;20.338;2023-07-28T14:55:24;793.80;793.60
70593;DHT22;58294;42.988;20.338;2023-07-28T14:57:50;793.80;793.60
70593;DHT22;58294;42.988;20.338;2023-07-28T15:00:17;793.80;793.60
70593;DHT22;58294;42.988;20.338;2023-07-28T15:02:44;793.70;819.20
70593;DHT22;58294;42.988;20.338;2023-07-28T15:05:10;793.70;819.20
70593;DHT22;58294;42.988;20.338;2023-07-28T15:07:36;793.60;819.20
70593;DHT22;58294;42.988;20.338;2023-07-28T15:10:03;768.80;819.20
70593;DHT22;58294;42.988;20.338;2023-07-28T15:12:29;768.80;793.60
70593;DHT22;58294;42.988;20.338;2023-07-28T15:14:55;768.70;819.20
70593;DHT22;58294;42.988;20.338;2023-07-28T15:17:21;768.70;819.20
70593;DHT22;58294;42.988;20.338;2023-07-28T15:19:46;768.60;819.20
70593;DHT22;58294;42.988;20.338;2023-07-28T15:22:12;768.50;819.20
70593;DHT22;58294;42.988;20.338;2023-07-28T15:24:38;768.50;819.20
70593;DHT22;58294;42.988;20.338;2023-07-28T15:27:04;768.30;844.80
70593;DHT22;58294;42.988;20.338;2023-07-28T15:29:30;768.20;844.80
70593;DHT22;58294;42.988;20.338;2023-07-28T15:31:56;768.20;844.80
70593;DHT22;58294;42.988;20.338;2023-07-28T15:34:22;768.20;870.40
70593;DHT22;58294;42.988;20.338;2023-07-28T15:36:48;768.20;870.40
70593;DHT22;58294;42.988;20.338;2023-07-28T15:39:14;768.20;870.40
70593;DHT22;58294;42.988;20.338;2023-07-28T15:41:39;768.20;870.40
70593;DHT22;58294;42.988;20.338;2023-07-28T15:44:05;768.10;896.00
70593;DHT22;58294;42.988;20.338;2023-07-28T15:46:31;768.10;870.40
70593;DHT22;58294;42.988;20.338;2023-07-28T15:48:57;768.00;896.00
70593;DHT22;58294;42.988;20.338;2023-07-28T15:51:22;768.00;896.00
70593;DHT22;58294;42.988;20.338;2023-07-28T15:53:48;768.00;870.40
70593;DHT22;58294;42.988;20.338;2023-07-28T15:56:14;743.30;896.00
70593;DHT22;58294;42.988;20.338;2023-07-28T15:58:40;743.30;870.40
70593;DHT22;58294;42.988;20.338;2023-07-28T16:01:06;743.20;870.40
70593;DHT22;58294;42.988;20.338;2023-07-28T16:03:31;743.10;870.40
70593;DHT22;58294;42.988;20.338;2023-07-28T16:05:57;743.10;896.00
70593;DHT22;58294;42.988;20.338;2023-07-28T16:08:24;743.00;896.00
70593;DHT22;58294;42.988;20.338;2023-07-28T16:10:49;742.90;921.60
70593;DHT22;58294;42.988;20.338;2023-07-28T16:13:15;742.90;921.60
70593;DHT22;58294;42.988;20.338;2023-07-28T16:15:41;742.90;896.00
70593;DHT22;58294;42.988;20.338;2023-07-28T16:18:07;742.90;896.00